Time;durP1;ratioP1;P1;durP2;ratioP2;P2;SDS_P1;SDS_P2;PMS_P1;PMS_P2;Temp;Humidity;BMP_temperature;BMP_pressure;BME280_temperature;BME280_humidity;BME280_pressure;Samples;Min_cycle;Max_cycle;Signal;HPM_P1;HPM_P2
2022/02/21 00:00:35;;;;;;;0.50;0.50;;;13.10;28.80;;;;;;10372797;28;20226;-71
2022/02/21 00:05:38;;;;;;;0.50;0.50;;;13.10;28.80;;;;;;10365243;28;20254;-71
2022/02/21 00:10:42;;;;;;;0.60;0.60;;;13.20;29.40;;;;;;10374476;28;20230;-71
2022/02/21 00:15:46;;;;;;;0.60;0.60;;;13.20;28.90;;;;;;10374339;28;20221;-71
2022/02/21 00:20:49;;;;;;;0.70;0.70;;;13.20;28.90;;;;;;10373422;28;20226;-71
2022/02/21 00:25:53;;;;;;;0.50;0.50;;;13.20;28.90;;;;;;10371548;28;20229;-71
2022/02/21 00:30:57;;;;;;;0.80;0.70;;;13.30;28.90;;;;;;10372973;28;20241;-74
2022/02/21 00:36:00;;;;;;;1.43;0.70;;;13.20;28.80;;;;;;10375830;28;20229;-74
2022/02/21 00:41:04;;;;;;;0.60;0.60;;;13.30;28.80;;;;;;10371459;28;20222;-73
2022/02/21 00:46:08;;;;;;;1.53;0.73;;;13.30;28.90;;;;;;10375081;28;20234;-70
2022/02/21 00:51:11;;;;;;;0.90;0.70;;;13.30;28.90;;;;;;10369763;28;20242;-70
2022/02/21 00:56:15;;;;;;;2.30;0.90;;;13.30;28.80;;;;;;10373427;28;20714;-70
2022/02/21 01:01:20;;;;;;;2.10;0.90;;;13.30;28.80;;;;;;10370176;28;20233;-70
2022/02/21 01:06:23;;;;;;;0.87;0.83;;;13.30;28.70;;;;;;10372744;28;20237;-70
2022/02/21 01:11:30;;;;;;;1.33;0.97;;;13.30;28.80;;;;;;10371030;28;20222;-71
2022/02/21 01:16:34;;;;;;;1.53;0.90;;;13.40;28.80;;;;;;10372274;28;20719;-71
2022/02/21 01:21:38;;;;;;;2.33;0.77;;;13.40;28.70;;;;;;10366047;28;20231;-71
2022/02/21 01:26:41;;;;;;;2.10;0.80;;;13.40;28.80;;;;;;10372255;28;20240;-71
2022/02/21 01:31:45;;;;;;;1.80;0.93;;;13.40;28.80;;;;;;10369684;28;20222;-71
2022/02/21 01:36:48;;;;;;;1.53;0.90;;;13.40;28.70;;;;;;10371516;28;20238;-71
2022/02/21 01:41:52;;;;;;;1.07;0.97;;;13.30;28.70;;;;;;10369359;28;20230;-71
2022/02/21 01:46:56;;;;;;;1.10;0.90;;;13.30;28.70;;;;;;10374687;28;20226;-71
2022/02/21 01:52:00;;;;;;;0.90;0.90;;;13.30;28.70;;;;;;10364878;28;20228;-71
2022/02/21 01:57:04;;;;;;;1.57;0.70;;;13.30;28.70;;;;;;10368524;28;20234;-71
2022/02/21 02:02:09;;;;;;;2.27;0.90;;;13.30;28.70;;;;;;10366782;28;20590;-71
2022/02/21 02:07:15;;;;;;;1.53;1.00;;;13.30;28.70;;;;;;10364581;28;20238;-71
2022/02/21 02:12:18;;;;;;;1.10;0.80;;;13.40;28.90;;;;;;10370006;28;20233;-71
2022/02/21 02:17:23;;;;;;;1.83;1.10;;;13.30;28.70;;;;;;10371785;28;20719;-71
2022/02/21 02:22:28;;;;;;;1.20;0.90;;;13.40;28.70;;;;;;10370823;28;20227;-70
2022/02/21 02:27:31;;;;;;;2.30;1.10;;;13.30;28.70;;;;;;10371881;28;20234;-71
2022/02/21 02:32:34;;;;;;;1.67;1.00;;;13.30;28.60;;;;;;10364911;28;20721;-71
2022/02/21 02:37:39;;;;;;;1.97;1.10;;;13.30;28.60;;;;;;10367613;28;20238;-71
2022/02/21 02:42:42;;;;;;;1.13;1.03;;;13.30;28.60;;;;;;10368171;28;20607;-71
2022/02/21 02:47:45;;;;;;;1.70;0.77;;;13.30;28.60;;;;;;10368570;28;20235;-71
2022/02/21 02:52:49;;;;;;;3.33;1.10;;;13.40;28.60;;;;;;10370921;28;20229;-71
2022/02/21 02:57:52;;;;;;;1.03;0.83;;;13.40;28.50;;;;;;10366532;28;20596;-71
2022/02/21 03:02:56;;;;;;;1.33;0.87;;;13.40;28.50;;;;;;10367869;28;20296;-70
2022/02/21 03:08:00;;;;;;;0.97;0.93;;;13.50;28.60;;;;;;10369216;28;20229;-70
2022/02/21 03:13:03;;;;;;;0.80;0.80;;;13.50;28.60;;;;;;10366014;28;20226;-70
2022/02/21 03:18:06;;;;;;;1.60;0.97;;;13.50;28.60;;;;;;10365899;28;20261;-70
2022/02/21 03:23:11;;;;;;;2.87;1.00;;;13.50;28.50;;;;;;10367653;28;20244;-69
2022/02/21 03:28:14;;;;;;;1.43;0.90;;;13.50;28.40;;;;;;10361554;28;20249;-70
2022/02/21 03:33:17;;;;;;;0.70;0.70;;;13.60;28.50;;;;;;10363502;28;20256;-70
2022/02/21 03:38:22;;;;;;;1.13;0.90;;;13.50;28.50;;;;;;10362776;28;20598;-70
2022/02/21 03:43:25;;;;;;;1.20;0.80;;;13.50;28.40;;;;;;10367322;28;20237;-70
2022/02/21 03:48:28;;;;;;;0.70;0.70;;;13.60;28.50;;;;;;10367566;28;20244;-70
2022/02/21 03:53:32;;;;;;;1.03;0.80;;;13.50;28.50;;;;;;10363817;28;20741;-70
2022/02/21 03:58:36;;;;;;;1.33;0.83;;;13.60;28.50;;;;;;10365633;28;20230;-70
2022/02/21 04:03:39;;;;;;;0.93;0.87;;;13.50;28.50;;;;;;10363787;28;20720;-70
2022/02/21 04:08:43;;;;;;;0.83;0.70;;;13.50;28.50;;;;;;10366560;28;20233;-70
2022/02/21 04:13:46;;;;;;;0.70;0.70;;;13.50;28.50;;;;;;10365101;28;20311;-74
2022/02/21 04:18:49;;;;;;;0.70;0.70;;;13.50;28.60;;;;;;10366488;28;20226;-74
2022/02/21 04:23:54;;;;;;;0.70;0.70;;;13.50;28.50;;;;;;10364853;28;20225;-74
2022/02/21 04:28:57;;;;;;;0.83;0.80;;;13.50;28.60;;;;;;10369722;28;20222;-70
2022/02/21 04:34:00;;;;;;;1.20;1.00;;;13.50;28.70;;;;;;10367070;28;20597;-70
2022/02/21 04:39:06;;;;;;;1.37;1.27;;;13.50;28.60;;;;;;10362033;28;21262;-70
2022/02/21 04:44:10;;;;;;;1.20;1.10;;;13.50;29.10;;;;;;10369991;28;20607;-70
2022/02/21 04:49:13;;;;;;;1.00;1.00;;;13.50;28.70;;;;;;10371417;28;20328;-70
2022/02/21 04:54:17;;;;;;;1.33;1.23;;;13.50;28.70;;;;;;10372494;28;20225;-70
2022/02/21 04:59:21;;;;;;;0.90;0.90;;;13.50;28.80;;;;;;10373191;28;20233;-74
2022/02/21 05:04:24;;;;;;;0.83;0.80;;;13.50;28.80;;;;;;10369803;28;20234;-70
2022/02/21 05:09:28;;;;;;;0.73;0.70;;;13.50;28.80;;;;;;10367133;28;20238;-70
2022/02/21 05:14:31;;;;;;;0.70;0.70;;;13.50;28.90;;;;;;10365471;28;20242;-70
2022/02/21 05:19:35;;;;;;;1.43;1.33;;;13.50;29.10;;;;;;10365412;28;20225;-70
2022/02/21 05:24:39;;;;;;;1.50;1.07;;;13.40;29.60;;;;;;10367061;28;20234;-70
2022/02/21 05:29:42;;;;;;;0.70;0.70;;;13.30;30.20;;;;;;10371707;28;20241;-74
2022/02/21 05:34:46;;;;;;;2.40;0.80;;;13.10;30.40;;;;;;10367063;28;20950;-74
2022/02/21 05:39:50;;;;;;;1.27;0.70;;;12.90;30.30;;;;;;10366129;28;20233;-74
2022/02/21 05:44:53;;;;;;;0.77;0.77;;;12.10;29.70;;;;;;10362411;28;20237;-74
2022/02/21 05:49:56;;;;;;;1.07;0.63;;;11.30;30.10;;;;;;10362149;28;20225;-73
2022/02/21 05:55:01;;;;;;;1.10;0.70;;;10.60;29.90;;;;;;10365471;28;20746;-74
2022/02/21 06:00:06;;;;;;;1.30;0.80;;;10.20;30.50;;;;;;10361297;28;20233;-74
2022/02/21 06:05:09;;;;;;;0.57;0.57;;;9.80;32.00;;;;;;10363920;28;20230;-73
2022/02/21 06:10:14;;;;;;;1.23;0.80;;;9.60;32.30;;;;;;10355714;28;20244;-74
2022/02/21 06:15:17;;;;;;;1.90;0.80;;;9.40;32.10;;;;;;10364512;28;20228;-70
2022/02/21 06:20:20;;;;;;;1.43;0.77;;;9.20;31.80;;;;;;10368450;28;20237;-70
2022/02/21 06:25:25;;;;;;;1.00;0.87;;;9.10;31.80;;;;;;10360298;28;20706;-72
2022/02/21 06:30:28;;;;;;;1.33;1.03;;;9.00;32.00;;;;;;10363373;28;20562;-70
2022/02/21 06:35:31;;;;;;;2.07;1.00;;;8.90;32.00;;;;;;10357967;28;20222;-70
2022/02/21 06:40:36;;;;;;;1.40;1.30;;;8.80;32.10;;;;;;10354681;28;20238;-70
2022/02/21 06:45:39;;;;;;;1.27;0.90;;;8.70;32.30;;;;;;10357787;28;20237;-70
2022/02/21 06:50:42;;;;;;;1.87;1.00;;;8.60;32.00;;;;;;10361994;28;20230;-70
2022/02/21 06:55:47;;;;;;;1.63;1.20;;;8.50;32.00;;;;;;10365145;28;20230;-70
2022/02/21 07:00:50;;;;;;;1.67;1.30;;;8.50;32.40;;;;;;10359665;28;20226;-70
2022/02/21 07:05:53;;;;;;;2.33;0.97;;;8.40;32.30;;;;;;10359187;28;20238;-70
2022/02/21 07:11:01;;;;;;;2.20;1.10;;;8.40;32.20;;;;;;10359077;28;20919;-71
2022/02/21 07:16:05;;;;;;;2.37;1.60;;;8.40;32.30;;;;;;10358250;28;20236;-71
2022/02/21 07:21:08;;;;;;;1.50;0.93;;;8.30;32.20;;;;;;10358167;28;20933;-71
2022/02/21 07:26:13;;;;;;;1.60;1.10;;;8.30;32.40;;;;;;10360576;28;20245;-71
2022/02/21 07:31:17;;;;;;;4.03;0.90;;;8.20;32.50;;;;;;10357948;28;20233;-71
2022/02/21 07:36:24;;;;;;;1.60;1.20;;;8.20;32.50;;;;;;10358380;28;20710;-71
2022/02/21 07:41:29;;;;;;;3.03;2.30;;;8.20;32.40;;;;;;10358817;28;20218;-71
2022/02/21 07:46:32;;;;;;;3.43;2.30;;;8.20;32.50;;;;;;10357707;28;20230;-71
2022/02/21 07:51:39;;;;;;;3.97;2.50;;;8.20;32.30;;;;;;10348688;28;20829;-71
2022/02/21 07:56:43;;;;;;;3.03;1.53;;;8.20;32.40;;;;;;10360005;28;20722;-71
2022/02/21 08:01:47;;;;;;;5.17;1.47;;;8.20;32.50;;;;;;10351031;28;20246;-71
2022/02/21 08:06:50;;;;;;;4.43;1.63;;;8.20;32.60;;;;;;10369437;28;20227;-71
2022/02/21 08:11:54;;;;;;;1.40;1.20;;;8.20;32.50;;;;;;10359262;28;20241;-71
2022/02/21 08:16:57;;;;;;;5.63;1.70;;;8.30;32.50;;;;;;10366585;28;20309;-71
2022/02/21 08:22:01;;;;;;;3.63;1.40;;;8.30;32.40;;;;;;10367919;28;20230;-71
2022/02/21 08:27:05;;;;;;;2.93;1.20;;;8.30;32.60;;;;;;10365872;28;20230;-71
2022/02/21 08:32:09;;;;;;;3.97;1.50;;;8.30;32.50;;;;;;10364292;28;20226;-71
2022/02/21 08:37:13;;;;;;;6.53;1.80;;;8.40;32.40;;;;;;10366216;28;20728;-71
2022/02/21 08:42:17;;;;;;;3.20;1.50;;;8.50;32.40;;;;;;10361113;28;20230;-70
2022/02/21 08:47:21;;;;;;;4.07;1.60;;;8.50;32.60;;;;;;10362244;28;20244;-70
2022/02/21 08:52:24;;;;;;;5.00;1.53;;;8.50;32.50;;;;;;10367820;28;20598;-70
2022/02/21 08:57:28;;;;;;;5.77;2.67;;;8.50;32.60;;;;;;10367158;28;20245;-70
2022/02/21 09:02:32;;;;;;;4.93;1.97;;;8.50;32.70;;;;;;10361607;28;20858;-70
2022/02/21 09:07:55;;;;;;;5.70;1.20;;;8.50;32.50;;;;;;10361197;28;20585;-70
2022/02/21 09:13:00;;;;;;;1.57;1.33;;;8.50;32.70;;;;;;10360314;28;20682;-70
2022/02/21 09:18:05;;;;;;;2.10;1.30;;;8.50;33.10;;;;;;10366492;28;20232;-70
2022/02/21 09:23:08;;;;;;;4.00;2.30;;;8.40;32.90;;;;;;10360878;28;20230;-70
2022/02/21 09:28:17;;;;;;;2.03;1.33;;;8.30;33.10;;;;;;10362605;28;20650;-70
2022/02/21 09:33:20;;;;;;;3.83;1.20;;;8.30;33.40;;;;;;10355951;28;20249;-69
2022/02/21 09:38:24;;;;;;;2.40;1.23;;;8.20;33.40;;;;;;10364347;28;20234;-69
2022/02/21 09:43:29;;;;;;;1.60;1.20;;;8.20;33.40;;;;;;10367599;28;20574;-69
2022/02/21 09:48:36;;;;;;;3.53;1.57;;;8.30;33.40;;;;;;10366195;28;20240;-69
2022/02/21 09:53:40;;;;;;;3.00;1.47;;;8.30;33.40;;;;;;10368400;28;20781;-69
2022/02/21 09:58:44;;;;;;;3.40;1.43;;;8.30;33.40;;;;;;10363611;28;20245;-70
2022/02/21 10:03:48;;;;;;;5.20;1.80;;;8.30;33.40;;;;;;10360827;28;20227;-70
2022/02/21 10:08:53;;;;;;;4.47;1.80;;;8.30;33.40;;;;;;10359403;28;20240;-70
2022/02/21 10:14:19;;;;;;;6.50;2.30;;;8.40;33.30;;;;;;10361936;28;20702;-70
2022/02/21 10:19:25;;;;;;;6.50;1.80;;;8.40;33.10;;;;;;10361372;28;20546;-70
2022/02/21 10:24:30;;;;;;;2.30;1.40;;;8.50;32.90;;;;;;10361084;28;20226;-70
2022/02/21 10:29:38;;;;;;;3.83;1.83;;;8.50;32.80;;;;;;10360396;28;20226;-69
2022/02/21 10:34:42;;;;;;;3.83;1.80;;;8.60;33.00;;;;;;10362190;28;20226;-69
2022/02/21 10:39:45;;;;;;;5.77;1.83;;;8.60;32.80;;;;;;10360304;28;20250;-70
2022/02/21 10:44:50;;;;;;;4.97;1.60;;;8.60;32.70;;;;;;10346401;28;20227;-70
2022/02/21 10:49:55;;;;;;;2.93;1.63;;;8.60;32.60;;;;;;10361357;28;20230;-70
2022/02/21 10:55:00;;;;;;;2.43;1.30;;;8.70;32.90;;;;;;10361562;28;20703;-70
2022/02/21 11:00:06;;;;;;;4.93;1.73;;;8.70;32.80;;;;;;10364117;28;20265;-70
2022/02/21 11:05:11;;;;;;;3.93;1.87;;;8.70;32.70;;;;;;10358364;28;20230;-70
2022/02/21 11:10:15;;;;;;;3.07;1.50;;;8.70;32.60;;;;;;10360759;28;20237;-70
2022/02/21 11:15:20;;;;;;;2.60;1.53;;;8.70;32.90;;;;;;10356620;28;20227;-70
2022/02/21 11:20:25;;;;;;;3.37;1.43;;;8.70;33.20;;;;;;10361460;28;20230;-70
2022/02/21 11:25:36;;;;;;;3.17;1.47;;;8.70;33.00;;;;;;10359140;28;20227;-70
2022/02/21 11:30:44;;;;;;;4.13;1.43;;;8.80;33.10;;;;;;10357849;28;20225;-70
2022/02/21 11:36:04;;;;;;;2.83;1.30;;;8.80;33.10;;;;;;10358400;28;20222;-70
2022/02/21 11:41:09;;;;;;;5.87;1.90;;;8.90;32.90;;;;;;10356562;28;20222;-70
2022/02/21 11:46:22;;;;;;;5.57;1.43;;;8.90;32.90;;;;;;10353368;28;20222;-70
2022/02/21 11:51:30;;;;;;;5.27;1.53;;;9.00;32.70;;;;;;10359521;28;20226;-70
2022/02/21 11:56:58;;;;;;;3.23;1.40;;;9.30;31.80;;;;;;10362742;28;20230;-70
2022/02/21 12:02:05;;;;;;;3.73;1.70;;;9.50;31.40;;;;;;10366134;28;20233;-70
2022/02/21 12:07:27;;;;;;;3.47;1.73;;;9.80;31.40;;;;;;10367427;28;20222;-70
2022/02/21 12:12:30;;;;;;;4.40;1.40;;;10.00;30.00;;;;;;10367610;28;20226;-70
2022/02/21 12:17:41;;;;;;;2.33;1.20;;;10.20;29.80;;;;;;10365984;28;20671;-70
2022/02/21 12:23:08;;;;;;;2.43;1.40;;;10.30;29.50;;;;;;10365715;28;20237;-70
2022/02/21 12:28:13;;;;;;;2.37;1.20;;;10.30;29.20;;;;;;10370970;28;20226;-70
2022/02/21 12:33:26;;;;;;;2.73;1.43;;;10.20;29.80;;;;;;10371589;28;20226;-70
2022/02/21 12:38:30;;;;;;;3.60;1.50;;;10.20;29.80;;;;;;10367394;28;20605;-70
2022/02/21 12:43:52;;;;;;;4.70;1.60;;;10.30;30.00;;;;;;10363983;28;20241;-71
2022/02/21 12:48:57;;;;;;;3.87;1.50;;;10.40;30.10;;;;;;10361861;28;20452;-71
2022/02/21 12:54:04;;;;;;;4.00;2.20;;;10.50;29.50;;;;;;10370408;28;20221;-70
2022/02/21 12:59:13;;;;;;;4.57;2.60;;;10.70;29.10;;;;;;10369501;28;20252;-71
2022/02/21 13:04:18;;;;;;;5.03;2.30;;;10.80;28.90;;;;;;10364576;28;20227;-70
2022/02/21 13:09:22;;;;;;;3.93;2.60;;;10.80;28.90;;;;;;10365572;28;20241;-71
2022/02/21 13:14:28;;;;;;;4.07;2.40;;;11.00;29.00;;;;;;10359525;28;20237;-71
2022/02/21 13:19:33;;;;;;;4.07;2.43;;;11.10;28.50;;;;;;10359372;28;20222;-71
2022/02/21 13:24:38;;;;;;;5.13;1.80;;;11.20;28.70;;;;;;10363512;28;20591;-70
2022/02/21 13:29:43;;;;;;;3.13;1.30;;;11.30;28.80;;;;;;10356508;28;20722;-70
2022/02/21 13:34:50;;;;;;;2.83;1.40;;;11.40;28.90;;;;;;10364409;28;20230;-70
2022/02/21 13:39:56;;;;;;;4.47;1.40;;;11.40;28.40;;;;;;10361852;28;20227;-70
2022/02/21 13:45:25;;;;;;;2.73;1.30;;;11.40;28.50;;;;;;10363901;28;20608;-70
2022/02/21 13:50:43;;;;;;;3.80;1.50;;;11.40;28.30;;;;;;10360620;28;20244;-70
2022/02/21 13:55:54;;;;;;;2.63;1.20;;;11.30;28.00;;;;;;10365291;28;20233;-70
2022/02/21 14:01:07;;;;;;;3.90;1.50;;;11.30;28.00;;;;;;10366865;28;20231;-70
2022/02/21 14:06:13;;;;;;;3.20;1.30;;;11.20;27.20;;;;;;10361083;28;20222;-70
2022/02/21 14:11:19;;;;;;;2.80;1.40;;;11.10;27.60;;;;;;10363038;28;20707;-71
2022/02/21 14:16:23;;;;;;;3.43;1.70;;;11.10;28.00;;;;;;10360567;28;20237;-71
2022/02/21 14:21:28;;;;;;;3.57;1.50;;;11.00;28.20;;;;;;10364063;28;20230;-70
2022/02/21 14:26:31;;;;;;;2.50;1.30;;;11.00;28.00;;;;;;10361633;28;20237;-71
2022/02/21 14:31:34;;;;;;;4.27;1.70;;;11.20;27.90;;;;;;10358441;28;20230;-70
2022/02/21 14:36:39;;;;;;;4.53;1.90;;;11.20;27.70;;;;;;10361771;28;20257;-70
2022/02/21 14:41:43;;;;;;;3.80;1.33;;;11.20;27.40;;;;;;10358965;28;20222;-70
2022/02/21 14:46:46;;;;;;;4.57;1.50;;;11.10;27.40;;;;;;10362178;28;20599;-71
2022/02/21 14:51:50;;;;;;;2.90;1.50;;;11.10;27.70;;;;;;10359563;28;20226;-70
2022/02/21 14:56:55;;;;;;;5.50;1.70;;;11.00;27.30;;;;;;10362368;28;20230;-70
2022/02/21 15:01:58;;;;;;;2.17;1.20;;;11.00;27.60;;;;;;10362018;28;20226;-73
2022/02/21 15:07:04;;;;;;;2.20;1.40;;;11.00;27.60;;;;;;10362316;28;20602;-71
2022/02/21 15:12:07;;;;;;;2.97;1.40;;;11.10;26.90;;;;;;10363369;28;20837;-71
2022/02/21 15:17:11;;;;;;;2.43;1.40;;;11.00;26.70;;;;;;10360966;28;20222;-70
2022/02/21 15:22:16;;;;;;;1.73;1.20;;;11.00;27.00;;;;;;10359043;28;20235;-71
2022/02/21 15:27:19;;;;;;;3.90;1.40;;;10.90;27.10;;;;;;10357657;28;20233;-71
2022/02/21 15:32:22;;;;;;;3.00;1.30;;;10.80;27.00;;;;;;10357692;28;20384;-71
2022/02/21 15:37:27;;;;;;;2.63;1.40;;;10.70;27.00;;;;;;10357489;28;20237;-70
2022/02/21 15:42:30;;;;;;;1.83;1.20;;;10.70;27.20;;;;;;10357979;28;20606;-70
2022/02/21 15:47:33;;;;;;;2.00;1.20;;;10.60;27.30;;;;;;10361560;28;20738;-71
2022/02/21 15:52:38;;;;;;;2.20;1.13;;;10.60;27.30;;;;;;10363842;28;20233;-71
2022/02/21 15:57:42;;;;;;;2.93;1.27;;;10.60;27.40;;;;;;10360771;28;20226;-71
2022/02/21 16:02:45;;;;;;;2.07;1.20;;;10.60;27.20;;;;;;10364861;28;20644;-70
2022/02/21 16:07:49;;;;;;;2.57;1.30;;;10.50;27.20;;;;;;10358283;28;20222;-70
2022/02/21 16:12:53;;;;;;;2.47;1.27;;;10.50;27.10;;;;;;10359261;28;20224;-70
2022/02/21 16:17:56;;;;;;;3.93;1.30;;;10.50;27.30;;;;;;10362405;28;20233;-70
2022/02/21 16:23:00;;;;;;;3.83;1.47;;;10.40;27.30;;;;;;10359371;28;20218;-70
2022/02/21 16:28:04;;;;;;;2.67;1.30;;;10.30;27.30;;;;;;10358854;28;20223;-69
2022/02/21 16:33:08;;;;;;;3.10;1.30;;;10.20;27.50;;;;;;10356858;28;20728;-70
2022/02/21 16:38:14;;;;;;;3.97;1.50;;;10.20;27.90;;;;;;10363650;28;20219;-70
2022/02/21 16:43:19;;;;;;;2.43;1.40;;;10.10;28.10;;;;;;10363233;28;20244;-71
2022/02/21 16:48:23;;;;;;;3.37;1.60;;;10.00;28.30;;;;;;10364962;28;20510;-70
2022/02/21 16:53:28;;;;;;;2.43;1.37;;;9.90;29.00;;;;;;10368525;28;20236;-70
2022/02/21 16:58:34;;;;;;;3.20;1.43;;;9.90;29.00;;;;;;10367245;28;20230;-69
2022/02/21 17:03:38;;;;;;;3.87;1.77;;;9.80;29.00;;;;;;10370075;28;20226;-69
2022/02/21 17:08:42;;;;;;;4.00;1.50;;;9.70;29.00;;;;;;10371874;28;20230;-69
2022/02/21 17:13:45;;;;;;;17.40;3.03;;;9.70;29.50;;;;;;10367477;28;20957;-70
2022/02/21 17:18:48;;;;;;;4.63;1.63;;;9.60;29.70;;;;;;10366405;28;20730;-70
2022/02/21 17:23:54;;;;;;;1.77;1.30;;;9.50;29.90;;;;;;10364827;28;20622;-70
2022/02/21 17:28:57;;;;;;;4.17;1.70;;;9.40;30.10;;;;;;10365603;28;20264;-70
2022/02/21 17:34:00;;;;;;;2.87;1.30;;;9.30;30.10;;;;;;10359567;28;20230;-70
2022/02/21 17:39:05;;;;;;;2.17;1.47;;;9.20;30.30;;;;;;10360696;28;20229;-70
2022/02/21 17:44:08;;;;;;;2.80;1.40;;;9.10;31.20;;;;;;10362590;28;20345;-71
2022/02/21 17:49:12;;;;;;;3.33;1.40;;;9.10;31.00;;;;;;10357271;28;20222;-71
2022/02/21 17:54:17;;;;;;;1.80;1.10;;;9.10;31.40;;;;;;10365172;28;20233;-70
2022/02/21 17:59:20;;;;;;;2.33;1.10;;;9.00;31.80;;;;;;10364040;28;20244;-73
2022/02/21 18:04:25;;;;;;;2.17;1.07;;;9.00;31.80;;;;;;10361586;28;20726;-73
2022/02/21 18:09:30;;;;;;;4.43;1.13;;;9.00;31.90;;;;;;10365445;28;20229;-76
2022/02/21 18:14:33;;;;;;;1.80;1.30;;;8.90;32.40;;;;;;10365842;28;20229;-74
2022/02/21 18:19:37;;;;;;;2.97;1.40;;;8.80;32.00;;;;;;10364023;28;20225;-70
2022/02/21 18:24:43;;;;;;;2.13;1.27;;;8.80;32.50;;;;;;10361057;28;20225;-70
2022/02/21 18:29:46;;;;;;;2.43;1.47;;;8.70;32.30;;;;;;10363761;28;20793;-74
2022/02/21 18:34:49;;;;;;;3.60;1.50;;;8.70;32.60;;;;;;10362725;28;20223;-73
2022/02/21 18:39:54;;;;;;;2.30;1.30;;;8.70;33.00;;;;;;10363618;28;20235;-73
2022/02/21 18:44:57;;;;;;;3.43;1.50;;;8.60;33.70;;;;;;10365656;28;20735;-74
2022/02/21 18:50:00;;;;;;;2.23;1.20;;;8.60;34.00;;;;;;10355359;28;20722;-73
2022/02/21 18:55:06;;;;;;;1.90;1.17;;;8.40;33.90;;;;;;10366590;28;20633;-73
2022/02/21 19:00:10;;;;;;;2.77;1.37;;;8.40;34.30;;;;;;10364585;28;20241;-73
2022/02/21 19:05:14;;;;;;;2.07;1.10;;;8.20;34.60;;;;;;10365724;28;20581;-73
2022/02/21 19:10:19;;;;;;;2.20;1.40;;;8.20;34.60;;;;;;10361372;28;20727;-73
2022/02/21 19:15:23;;;;;;;2.43;1.13;;;8.20;35.40;;;;;;10355828;28;20226;-72
2022/02/21 19:20:27;;;;;;;1.73;1.03;;;8.20;34.90;;;;;;10361562;28;20707;-72
2022/02/21 19:25:32;;;;;;;2.47;1.17;;;8.10;35.10;;;;;;10358129;28;20218;-72
2022/02/21 19:30:35;;;;;;;2.10;1.20;;;8.10;35.60;;;;;;10359688;28;20226;-71
2022/02/21 19:35:39;;;;;;;1.50;0.83;;;8.10;35.10;;;;;;10356028;28;20218;-71
2022/02/21 19:40:43;;;;;;;1.80;0.90;;;8.10;35.50;;;;;;10357494;28;20222;-71
2022/02/21 19:45:46;;;;;;;1.33;0.90;;;8.10;35.90;;;;;;10362362;28;20214;-71
2022/02/21 19:50:50;;;;;;;1.30;0.90;;;8.10;36.00;;;;;;10357692;28;20729;-71
2022/02/21 19:55:54;;;;;;;0.70;0.70;;;8.10;36.20;;;;;;10361320;28;20222;-72
2022/02/21 20:00:58;;;;;;;0.87;0.87;;;8.00;36.30;;;;;;10361907;28;20226;-71
2022/02/21 20:06:01;;;;;;;0.90;0.80;;;8.00;35.90;;;;;;10362095;28;20714;-72
2022/02/21 20:11:07;;;;;;;1.97;1.43;;;8.00;35.90;;;;;;10359645;28;20706;-71
2022/02/21 20:16:15;;;;;;;1.30;1.00;;;8.00;36.50;;;;;;10364168;28;20234;-71
2022/02/21 20:21:18;;;;;;;1.03;0.87;;;8.00;36.30;;;;;;10362542;28;20269;-71
2022/02/21 20:26:22;;;;;;;1.10;0.80;;;8.10;36.40;;;;;;10368436;28;20226;-71
2022/02/21 20:31:29;;;;;;;1.10;0.80;;;8.10;37.40;;;;;;10367897;28;20812;-71
2022/02/21 20:36:34;;;;;;;0.90;0.80;;;8.10;36.30;;;;;;10369962;28;20317;-71
2022/02/21 20:41:39;;;;;;;1.13;0.83;;;8.00;37.50;;;;;;10364724;28;20966;-71
2022/02/21 20:46:42;;;;;;;1.33;0.87;;;7.90;37.20;;;;;;10357874;28;20818;-71
2022/02/21 20:51:45;;;;;;;0.80;0.80;;;7.90;37.40;;;;;;10346458;28;20237;-71
2022/02/21 20:56:49;;;;;;;1.20;0.90;;;7.90;37.30;;;;;;10343166;28;20245;-71
2022/02/21 21:01:53;;;;;;;1.60;0.97;;;7.90;37.50;;;;;;10348071;28;20226;-71
2022/02/21 21:06:56;;;;;;;1.40;1.07;;;8.00;37.40;;;;;;10345318;28;20596;-72
2022/02/21 21:12:00;;;;;;;1.67;1.07;;;8.00;37.40;;;;;;10350298;28;20222;-69
2022/02/21 21:17:04;;;;;;;2.03;1.10;;;8.00;37.60;;;;;;10352997;28;20233;-69
2022/02/21 21:22:07;;;;;;;2.43;1.40;;;8.00;37.40;;;;;;10352119;28;20231;-69
2022/02/21 21:27:12;;;;;;;1.87;1.40;;;8.00;37.50;;;;;;10350352;28;20237;-71
2022/02/21 21:32:15;;;;;;;1.37;1.10;;;8.00;38.10;;;;;;10356654;28;20217;-71
2022/02/21 21:37:19;;;;;;;2.03;1.43;;;8.10;37.40;;;;;;10356546;28;20749;-71
2022/02/21 21:42:23;;;;;;;2.67;1.43;;;8.10;37.80;;;;;;10353990;28;20230;-71
2022/02/21 21:47:28;;;;;;;2.93;1.40;;;8.10;38.00;;;;;;10356898;28;20734;-69
2022/02/21 21:52:32;;;;;;;3.03;1.40;;;8.10;37.40;;;;;;10360851;28;20241;-69
2022/02/21 21:57:37;;;;;;;3.27;1.63;;;8.20;37.20;;;;;;10359117;28;20328;-69
2022/02/21 22:02:40;;;;;;;5.03;1.80;;;8.20;37.40;;;;;;10361225;28;20255;-69
2022/02/21 22:07:44;;;;;;;3.23;1.33;;;8.30;37.00;;;;;;10355263;28;20710;-69
2022/02/21 22:12:49;;;;;;;2.43;1.30;;;8.30;36.80;;;;;;10355817;28;20240;-71
2022/02/21 22:17:53;;;;;;;2.60;1.23;;;8.40;36.80;;;;;;10359050;28;20222;-71
2022/02/21 22:22:56;;;;;;;3.47;1.30;;;8.40;36.30;;;;;;10366171;28;20718;-71
2022/02/21 22:28:00;;;;;;;3.07;1.30;;;8.40;36.40;;;;;;10360819;28;20246;-71
2022/02/21 22:33:04;;;;;;;2.20;1.30;;;8.40;36.70;;;;;;10360294;28;20237;-73
2022/02/21 22:38:07;;;;;;;4.07;1.43;;;8.30;36.40;;;;;;10358105;28;20234;-73
2022/02/21 22:43:11;;;;;;;4.30;1.40;;;8.40;36.80;;;;;;10362271;28;20237;-73
2022/02/21 22:48:20;;;;;;;3.97;1.63;;;8.40;36.70;;;;;;10364706;28;20312;-73
2022/02/21 22:53:23;;;;;;;3.30;1.50;;;8.40;36.80;;;;;;10365491;28;20310;-73
2022/02/21 22:58:28;;;;;;;3.10;1.20;;;8.30;36.40;;;;;;10359094;28;20245;-72
2022/02/21 23:03:32;;;;;;;4.03;1.50;;;8.30;36.50;;;;;;10362555;28;20230;-71
2022/02/21 23:08:35;;;;;;;4.17;1.57;;;8.30;36.80;;;;;;10360019;28;20237;-72
2022/02/21 23:13:39;;;;;;;3.00;1.20;;;8.30;36.40;;;;;;10359310;28;20225;-69
2022/02/21 23:18:43;;;;;;;3.17;1.50;;;8.30;36.20;;;;;;10363068;28;20242;-69
2022/02/21 23:23:46;;;;;;;5.23;1.60;;;8.30;36.10;;;;;;10360046;28;20737;-69
2022/02/21 23:28:52;;;;;;;4.27;1.60;;;8.40;36.10;;;;;;10360229;28;20222;-69
2022/02/21 23:33:55;;;;;;;3.50;1.10;;;8.40;36.30;;;;;;10357568;28;20230;-73
2022/02/21 23:38:59;;;;;;;2.27;1.03;;;8.40;36.00;;;;;;10360126;28;20237;-73
2022/02/21 23:44:07;;;;;;;2.53;1.20;;;8.40;36.00;;;;;;10366075;28;20238;-72
2022/02/21 23:49:10;;;;;;;2.43;1.30;;;8.40;36.10;;;;;;10367147;28;20244;-73
2022/02/21 23:54:13;;;;;;;2.67;1.30;;;8.40;36.10;;;;;;10367773;28;20243;-73
2022/02/21 23:59:18;;;;;;;2.27;1.10;;;8.40;36.10;;;;;;10365767;28;20244;-73
